»·PEaware :: N172TT KSBA-KBFL

N172TT :: KSBA-KBFL

FLIGHT INFORMATION

Flight Status: Arrived
Operator: Privately registered:
United States
More flights under this callsign
Pilot: Thomas T. (19955)
Aircraft: CESSNA 172 SKYHAWK
(C172)
More flights by this aircraft type
Origin: KSBA Santa Barbara Mun
United States
Destination: KBFL Meadows
United States
More flights between these airports :: More routes between these airports
Route: +
File this flight plan on PilotEdge
Remarks:
Altitude:
(Current/Filed)
0ft
Speed:
(Current/Filed)
0kts
Departed: 20-Aug-18 12:24 PM
Arrived: 20-Aug-18 01:14 PM
Distance/Time
Traveled:
72nm/0:49
Distance/Time
To Go:
Arrived

Flight Plot

Page will automatically refresh every two minutes.


Map Options




Map Legend


Flown Route
Filed Route
Departure Airport
Arrival Airport
Navaid (VOR, NDB)
Fix

Horizontal Profiles

Position Reports

Time Latitude Longitude Heading Altitude Ground
Speed
20-Aug-18 12:13 34.422623 -119.835741 172 10ft 0kts
20-Aug-18 12:14 34.422623 -119.835741 172 10ft 0kts
20-Aug-18 12:15 34.422623 -119.835741 172 10ft 0kts
20-Aug-18 12:16 34.422623 -119.835741 172 10ft 0kts
20-Aug-18 12:17 34.422623 -119.835741 172 10ft 0kts
20-Aug-18 12:18 34.422623 -119.835741 172 10ft 0kts
20-Aug-18 12:19 34.422623 -119.835741 171 10ft 0kts
20-Aug-18 12:20 34.422726 -119.837048 296 12ft 9kts
20-Aug-18 12:21 34.426080 -119.838178 344 11ft 14kts
20-Aug-18 12:22 34.427020 -119.835386 18 10ft 0kts
20-Aug-18 12:23 34.427020 -119.835386 18 10ft 0kts
20-Aug-18 12:24 34.427345 -119.835277 15 10ft 8kts
20-Aug-18 12:25 34.427795 -119.838903 268 27ft 66kts
20-Aug-18 12:26 34.423404 -119.864417 248 831ft 83kts
20-Aug-18 12:27 34.408897 -119.875722 160 1362ft 73kts
20-Aug-18 12:28 34.399572 -119.858382 53 1453ft 73kts
20-Aug-18 12:29 34.416915 -119.841832 36 1447ft 97kts
20-Aug-18 12:30 34.440753 -119.820708 33 1453ft 111kts
20-Aug-18 12:31 34.464757 -119.800975 32 1944ft 68kts
20-Aug-18 12:32 34.478107 -119.790430 31 2846ft 61kts
20-Aug-18 12:33 34.494629 -119.777002 32 3580ft 73kts
20-Aug-18 12:34 34.511063 -119.763527 32 4368ft 70kts
20-Aug-18 12:35 34.528354 -119.749867 30 5168ft 80kts
20-Aug-18 12:36 34.547938 -119.735236 31 5967ft 86kts
20-Aug-18 12:37 34.568144 -119.719738 31 6768ft 85kts
20-Aug-18 12:38 34.589067 -119.703624 31 7353ft 103kts
20-Aug-18 12:39 34.615226 -119.683224 32 7444ft 114kts
20-Aug-18 12:40 34.641960 -119.662251 32 7444ft 114kts
20-Aug-18 12:41 34.668606 -119.641276 32 7444ft 114kts
20-Aug-18 12:42 34.695363 -119.620141 32 7443ft 114kts
20-Aug-18 12:43 34.721693 -119.599243 32 7536ft 108kts
20-Aug-18 12:44 34.748013 -119.578951 31 7538ft 113kts
20-Aug-18 12:45 34.774739 -119.558436 31 7538ft 114kts
20-Aug-18 12:46 34.801671 -119.537690 31 7538ft 114kts
20-Aug-18 12:47 34.828237 -119.517156 31 7538ft 114kts
20-Aug-18 12:48 34.854957 -119.496433 31 7537ft 114kts
20-Aug-18 12:49 34.882752 -119.474772 32 7180ft 120kts
20-Aug-18 12:50 34.911000 -119.452668 32 6781ft 121kts
20-Aug-18 12:51 34.939766 -119.430078 32 6302ft 124kts
20-Aug-18 12:52 34.968826 -119.407176 32 5803ft 125kts
20-Aug-18 12:53 34.998251 -119.384715 31 5304ft 125kts
20-Aug-18 12:54 35.027681 -119.362247 31 4805ft 125kts
20-Aug-18 12:55 35.055969 -119.340576 32 4326ft 125kts
20-Aug-18 12:56 35.085520 -119.317860 32 3825ft 125kts
20-Aug-18 12:57 35.111478 -119.297829 32 3572ft 95kts
20-Aug-18 12:58 35.131725 -119.282232 32 3566ft 86kts
20-Aug-18 12:59 35.152785 -119.265965 32 3569ft 91kts
20-Aug-18 13:00 35.174070 -119.248736 36 3569ft 92kts
20-Aug-18 13:01 35.194323 -119.229317 38 3569ft 92kts
20-Aug-18 13:02 35.214521 -119.209607 38 3569ft 93kts
20-Aug-18 13:03 35.234688 -119.189866 38 3549ft 95kts
20-Aug-18 13:04 35.255986 -119.168916 38 3252ft 98kts
20-Aug-18 13:05 35.277833 -119.147345 38 2838ft 105kts
20-Aug-18 13:06 35.300075 -119.125302 38 2554ft 92kts
20-Aug-18 13:07 35.318537 -119.107011 38 2547ft 81kts
20-Aug-18 13:08 35.335742 -119.089950 38 2545ft 79kts
20-Aug-18 13:09 35.352779 -119.073012 38 2545ft 78kts
20-Aug-18 13:10 35.370743 -119.054519 41 2259ft 87kts
20-Aug-18 13:11 35.387151 -119.036749 41 1708ft 72kts
20-Aug-18 13:12 35.403920 -119.029223 346 1252ft 67kts
20-Aug-18 13:13 35.420209 -119.040423 317 820ft 70kts
20-Aug-18 13:14 35.433648 -119.056009 314 488ft 52kts
20-Aug-18 13:15 35.436252 -119.057741 50 492ft 0kts
20-Aug-18 13:16 35.436300 -119.057622 69 493ft 5kts
20-Aug-18 13:17 35.435973 -119.055192 43 496ft 5kts

Navigation Log

Ident Type
1. KSBA Airport
2. KBFL Airport